Time;durP1;ratioP1;P1;durP2;ratioP2;P2;SDS_P1;SDS_P2;PMS_P1;PMS_P2;Temp;Humidity;BMP_temperature;BMP_pressure;BME280_temperature;BME280_humidity;BME280_pressure;Samples;Min_cycle;Max_cycle;Signal;HPM_P1;HPM_P2
2023/01/01 00:01:09;;;;;;;432.02;324.35;;;11.40;1.00;;;;;;5030103;28;20103;-62
2023/01/01 00:03:35;;;;;;;457.00;344.48;;;11.40;1.00;;;;;;5032758;28;20043;-62
2023/01/01 00:06:12;;;;;;;425.02;327.17;;;11.30;1.00;;;;;;5023568;28;20025;-62
2023/01/01 00:08:38;;;;;;;405.25;307.42;;;11.40;1.00;;;;;;5031370;28;20462;-62
2023/01/01 00:11:06;;;;;;;403.83;305.98;;;11.40;1.00;;;;;;5022641;28;20320;-62
2023/01/01 00:13:33;;;;;;;420.20;310.15;;;11.30;1.00;;;;;;5032644;28;20032;-62
2023/01/01 00:16:11;;;;;;;399.42;295.90;;;11.40;1.00;;;;;;5022516;28;20510;-62
2023/01/01 00:18:37;;;;;;;401.90;294.02;;;11.40;1.00;;;;;;5028495;28;20107;-62
2023/01/01 00:21:11;;;;;;;383.70;290.30;;;11.40;1.00;;;;;;5030864;28;20022;-62
2023/01/01 00:23:37;;;;;;;335.45;252.73;;;11.40;1.00;;;;;;5032539;28;20095;-62
2023/01/01 00:26:15;;;;;;;267.73;202.82;;;11.30;1.00;;;;;;5017276;28;20036;-62
2023/01/01 00:28:40;;;;;;;281.23;212.82;;;11.30;1.00;;;;;;5038064;28;20049;-62
2023/01/01 00:31:12;;;;;;;284.40;219.25;;;11.30;1.00;;;;;;5032166;28;20017;-62
2023/01/01 00:33:37;;;;;;;278.67;203.63;;;11.40;1.00;;;;;;5029857;28;20021;-62
2023/01/01 00:36:07;;;;;;;277.42;205.35;;;11.40;1.00;;;;;;5027644;28;20044;-62
2023/01/01 00:38:33;;;;;;;258.63;196.48;;;11.20;1.00;;;;;;5030546;28;20021;-62
2023/01/01 00:40:58;;;;;;;269.38;198.70;;;11.10;1.00;;;;;;5031876;28;20510;-61
2023/01/01 00:43:24;;;;;;;263.05;193.10;;;11.20;1.00;;;;;;5031875;28;20033;-62
2023/01/01 00:45:53;;;;;;;243.02;177.45;;;11.30;1.00;;;;;;5032156;28;20033;-62
2023/01/01 00:48:20;;;;;;;254.32;183.57;;;11.30;1.00;;;;;;5031985;28;20033;-62
2023/01/01 00:50:50;;;;;;;229.07;170.15;;;11.30;1.00;;;;;;5026620;28;20025;-62
2023/01/01 00:53:15;;;;;;;217.13;159.50;;;11.20;1.00;;;;;;5031776;28;20040;-62
2023/01/01 00:55:42;;;;;;;237.05;168.30;;;11.20;1.00;;;;;;5022105;28;20479;-62
2023/01/01 00:58:09;;;;;;;237.10;167.18;;;11.20;1.00;;;;;;5026942;28;20029;-62
2023/01/01 01:00:35;;;;;;;207.00;154.18;;;11.10;1.00;;;;;;5031532;28;20095;-62
2023/01/01 01:03:01;;;;;;;222.88;160.15;;;11.10;1.00;;;;;;5031919;28;20456;-62
2023/01/01 01:05:27;;;;;;;216.50;159.65;;;11.10;1.00;;;;;;5028619;28;20049;-62
2023/01/01 01:07:53;;;;;;;230.30;162.18;;;11.20;1.00;;;;;;5023069;28;20064;-62
2023/01/01 01:10:22;;;;;;;227.25;167.93;;;11.20;1.00;;;;;;5023749;28;20119;-62
2023/01/01 01:12:48;;;;;;;253.60;184.05;;;11.20;1.00;;;;;;5031916;28;20112;-62
2023/01/01 01:15:14;;;;;;;251.35;180.27;;;11.10;1.00;;;;;;5031271;28;20063;-62
2023/01/01 01:17:40;;;;;;;274.75;196.52;;;11.20;1.00;;;;;;5031569;28;20092;-62
2023/01/01 01:20:06;;;;;;;254.45;186.20;;;11.00;1.00;;;;;;5024713;28;20105;-62
2023/01/01 01:22:33;;;;;;;275.95;198.40;;;11.00;1.00;;;;;;5031489;28;20040;-62
2023/01/01 01:25:08;;;;;;;254.98;187.20;;;11.00;1.00;;;;;;5027348;28;20030;-62
2023/01/01 01:27:34;;;;;;;300.58;208.25;;;11.00;1.00;;;;;;5032780;28;20041;-62
2023/01/01 01:29:59;;;;;;;249.23;182.32;;;11.10;1.00;;;;;;5033283;28;20068;-62
2023/01/01 01:32:25;;;;;;;258.48;189.38;;;11.10;1.00;;;;;;5031487;28;20071;-62
2023/01/01 01:34:51;;;;;;;263.40;191.88;;;11.10;1.00;;;;;;5030259;28;20075;-62
2023/01/01 01:37:16;;;;;;;247.98;185.35;;;11.20;1.00;;;;;;5024945;28;20025;-62
2023/01/01 01:39:42;;;;;;;269.73;197.48;;;11.20;1.00;;;;;;5033829;28;20025;-62
2023/01/01 01:42:16;;;;;;;232.18;172.73;;;11.20;1.00;;;;;;5035108;28;20407;-62
2023/01/01 01:44:45;;;;;;;254.90;181.68;;;11.20;1.00;;;;;;5035450;28;20037;-62
2023/01/01 01:47:21;;;;;;;271.80;194.27;;;11.20;1.00;;;;;;5035600;28;20033;-62
2023/01/01 01:49:49;;;;;;;253.77;184.75;;;11.20;1.00;;;;;;5032906;28;20029;-62
2023/01/01 01:52:15;;;;;;;238.57;174.38;;;11.30;1.00;;;;;;5035417;28;20052;-62
2023/01/01 01:54:41;;;;;;;263.73;189.23;;;11.20;1.00;;;;;;5034995;28;20021;-62
2023/01/01 01:57:09;;;;;;;263.92;192.20;;;11.30;1.00;;;;;;5035413;28;20026;-62
2023/01/01 01:59:40;;;;;;;252.85;184.80;;;11.30;1.00;;;;;;5027875;28;20096;-62
2023/01/01 02:02:14;;;;;;;280.30;197.55;;;11.30;1.00;;;;;;5034677;28;20037;-62
2023/01/01 02:04:41;;;;;;;255.48;194.05;;;11.40;1.00;;;;;;5032379;28;20034;-62
2023/01/01 02:07:07;;;;;;;281.48;205.32;;;11.30;1.00;;;;;;5035025;28;20021;-62
2023/01/01 02:09:33;;;;;;;236.65;176.07;;;11.30;1.00;;;;;;5028172;28;20029;-62
2023/01/01 02:11:58;;;;;;;229.77;171.77;;;11.30;1.00;;;;;;5035066;28;20025;-62
2023/01/01 02:14:24;;;;;;;241.32;181.43;;;11.10;1.00;;;;;;5025593;28;20399;-62
2023/01/01 02:17:01;;;;;;;234.70;178.63;;;11.30;1.00;;;;;;5034857;28;20029;-62
2023/01/01 02:20:03;;;;;;;239.65;172.55;;;11.30;1.00;;;;;;5034667;28;20412;-62
2023/01/01 02:22:53;;;;;;;212.43;157.75;;;11.30;1.00;;;;;;5035047;28;20038;-62
2023/01/01 02:25:27;;;;;;;226.77;161.82;;;11.30;1.00;;;;;;5034038;28;20499;-62
2023/01/01 02:28:05;;;;;;;189.88;143.65;;;11.20;1.00;;;;;;5033452;28;20047;-61
2023/01/01 02:30:31;;;;;;;212.68;153.57;;;11.30;1.00;;;;;;5033828;28;20018;-62
2023/01/01 02:33:04;;;;;;;207.10;150.38;;;11.20;1.00;;;;;;5034652;28;20080;-62
2023/01/01 02:35:37;;;;;;;212.93;154.35;;;11.30;1.00;;;;;;5024663;28;20064;-62
2023/01/01 02:38:26;;;;;;;207.25;153.57;;;11.20;1.00;;;;;;5032542;28;20051;-62
2023/01/01 02:41:05;;;;;;;190.65;139.30;;;11.30;1.00;;;;;;5027165;28;20034;-61
2023/01/01 02:43:30;;;;;;;189.77;141.10;;;11.10;1.00;;;;;;5032819;28;20041;-62
2023/01/01 02:45:56;;;;;;;181.52;138.45;;;11.10;1.00;;;;;;5032962;28;20104;-61
2023/01/01 02:48:42;;;;;;;190.88;141.23;;;11.20;1.00;;;;;;5033203;28;20382;-61
2023/01/01 02:51:15;;;;;;;;;;;11.10;1.00;;;;;;5034864;28;20048;-61
2023/01/01 02:54:03;;;;;;;187.65;135.02;;;11.10;1.00;;;;;;5033880;28;19913;-61
2023/01/01 02:56:57;;;;;;;186.02;136.40;;;11.20;1.00;;;;;;5034038;28;20499;-61
2023/01/01 03:02:40;;;;;;;164.55;127.68;;;11.30;1.00;;;;;;5021304;28;20049;-62
2023/01/01 03:05:12;;;;;;;167.07;128.40;;;11.20;1.00;;;;;;5033894;28;20124;-62
2023/01/01 03:07:45;;;;;;;176.75;128.90;;;11.20;1.00;;;;;;5033417;28;20056;-61
2023/01/01 03:10:37;;;;;;;155.43;117.32;;;11.20;1.00;;;;;;5021673;28;20097;-61
2023/01/01 03:13:12;;;;;;;160.15;120.50;;;11.00;1.00;;;;;;5033839;28;20065;-62
2023/01/01 03:15:58;;;;;;;;;;;11.00;1.00;;;;;;5021033;28;20092;-61
2023/01/01 03:18:41;;;;;;;;;;;11.00;1.00;;;;;;5032907;28;19909;-62
2023/01/01 03:21:10;;;;;;;136.65;106.53;;;11.00;1.00;;;;;;5029616;28;19974;-61
2023/01/01 03:23:45;;;;;;;135.27;104.40;;;10.90;1.00;;;;;;5033380;28;20485;-61
2023/01/01 03:26:13;;;;;;;140.02;108.57;;;10.90;1.00;;;;;;5032403;28;20021;-61
2023/01/01 03:28:58;;;;;;;137.18;106.28;;;11.00;1.00;;;;;;5033431;28;20044;-61
2023/01/01 03:31:25;;;;;;;136.00;104.30;;;11.00;1.00;;;;;;5031969;28;20356;-61
2023/01/01 03:33:59;;;;;;;121.00;95.38;;;11.10;1.00;;;;;;5032008;28;20056;-61
2023/01/01 03:36:30;;;;;;;119.38;93.03;;;11.00;1.00;;;;;;5032005;28;20025;-61
2023/01/01 03:39:07;;;;;;;101.22;79.30;;;11.00;1.00;;;;;;5032453;28;20033;-61
2023/01/01 03:41:35;;;;;;;92.22;70.72;;;10.90;1.00;;;;;;5026584;28;20136;-61
2023/01/01 03:44:06;;;;;;;93.20;72.38;;;10.90;1.00;;;;;;5028980;28;20052;-61
2023/01/01 03:46:34;;;;;;;86.43;67.65;;;10.90;1.00;;;;;;5025909;28;20052;-62
2023/01/01 03:49:02;;;;;;;73.38;58.22;;;10.90;1.00;;;;;;5030123;28;20067;-62
2023/01/01 03:51:53;;;;;;;81.53;62.47;;;10.80;1.00;;;;;;5031055;28;20021;-61
2023/01/01 04:01:36;;;;;;;63.95;50.22;;;10.80;1.00;;;;;;5022972;28;20371;-62
2023/01/01 04:04:04;;;;;;;65.40;49.63;;;10.80;1.00;;;;;;5024390;28;20525;-62
2023/01/01 04:06:32;;;;;;;60.47;46.65;;;10.80;1.00;;;;;;5028760;28;20032;-61
2023/01/01 04:08:59;;;;;;;61.22;47.25;;;10.80;1.00;;;;;;5032361;28;20087;-61
2023/01/01 04:14:13;;;;;;;63.80;46.95;;;10.90;1.00;;;;;;5030197;28;20037;-61
2023/01/01 04:16:38;;;;;;;53.92;42.67;;;10.90;1.00;;;;;;5032765;28;20026;-62
2023/01/01 04:19:05;;;;;;;57.42;43.95;;;11.00;1.00;;;;;;5030954;28;20021;-62
2023/01/01 04:21:32;;;;;;;53.40;39.42;;;11.00;1.00;;;;;;5032009;28;20037;-62
2023/01/01 04:23:58;;;;;;;51.35;39.85;;;10.90;1.00;;;;;;5030020;28;20017;-61
2023/01/01 04:26:23;;;;;;;50.42;38.85;;;10.90;1.00;;;;;;5024672;28;20030;-61
2023/01/01 04:28:49;;;;;;;58.60;42.05;;;10.90;1.00;;;;;;5032319;28;20104;-62
2023/01/01 04:31:15;;;;;;;48.90;38.03;;;11.00;1.00;;;;;;5022400;28;20116;-61
2023/01/01 04:33:40;;;;;;;48.92;38.45;;;11.00;1.00;;;;;;5032386;28;20363;-61
2023/01/01 04:36:07;;;;;;;51.50;40.00;;;11.00;1.00;;;;;;5032451;28;20048;-61
2023/01/01 04:38:34;;;;;;;47.03;36.50;;;10.90;1.00;;;;;;5032593;28;20033;-63
2023/01/01 04:41:01;;;;;;;48.13;37.42;;;10.90;1.00;;;;;;5017483;28;20447;-62
2023/01/01 04:43:27;;;;;;;53.38;40.45;;;10.90;1.00;;;;;;5032072;28;20124;-62
2023/01/01 04:45:57;;;;;;;53.13;39.22;;;10.90;1.00;;;;;;5028940;28;20112;-62
2023/01/01 04:48:23;;;;;;;55.08;40.05;;;10.90;1.00;;;;;;5038861;28;20029;-62
2023/01/01 04:51:00;;;;;;;51.58;39.60;;;10.90;1.00;;;;;;5039019;28;20542;-63
2023/01/01 04:53:29;;;;;;;52.08;38.53;;;11.00;1.00;;;;;;5018713;28;20037;-62
2023/01/01 04:55:55;;;;;;;52.55;39.65;;;10.90;1.00;;;;;;5025341;28;20132;-62
2023/01/01 04:58:20;;;;;;;51.30;39.50;;;11.00;1.00;;;;;;5029346;28;20030;-62
2023/01/01 05:00:50;;;;;;;47.85;36.90;;;11.00;1.00;;;;;;5030505;28;20026;-62
2023/01/01 05:03:16;;;;;;;49.38;37.38;;;11.00;1.00;;;;;;5030432;28;20030;-62
2023/01/01 05:05:42;;;;;;;44.72;35.03;;;10.90;1.00;;;;;;5031757;28;20029;-62
2023/01/01 05:08:08;;;;;;;43.42;34.67;;;10.90;1.00;;;;;;5031613;28;20029;-62
2023/01/01 05:10:33;;;;;;;45.35;35.92;;;10.90;1.00;;;;;;5031672;28;20025;-62
2023/01/01 05:12:59;;;;;;;47.72;35.70;;;11.00;1.00;;;;;;5029853;28;20067;-62
2023/01/01 05:15:25;;;;;;;51.38;37.75;;;11.00;1.00;;;;;;5030012;28;20021;-62
2023/01/01 05:17:50;;;;;;;50.13;36.53;;;10.90;1.00;;;;;;5031591;28;20037;-62
2023/01/01 05:20:16;;;;;;;55.40;39.33;;;10.90;1.00;;;;;;5020748;28;20036;-62
2023/01/01 05:22:44;;;;;;;50.67;37.20;;;10.90;1.00;;;;;;5031523;28;20041;-62
2023/01/01 05:25:09;;;;;;;52.78;38.55;;;10.90;1.00;;;;;;5019885;28;20034;-62
2023/01/01 05:27:35;;;;;;;45.72;35.50;;;10.90;1.00;;;;;;5028876;28;20022;-62
2023/01/01 05:30:00;;;;;;;44.25;33.50;;;11.00;1.00;;;;;;5025431;28;20086;-62
2023/01/01 05:32:27;;;;;;;48.53;36.30;;;11.00;1.00;;;;;;5028845;28;20447;-62
2023/01/01 05:34:53;;;;;;;47.28;35.85;;;11.00;1.00;;;;;;5023298;28;20049;-62
2023/01/01 05:37:18;;;;;;;47.38;35.53;;;10.90;1.00;;;;;;5029824;28;20486;-62
2023/01/01 05:39:44;;;;;;;48.25;34.90;;;11.00;1.00;;;;;;5019617;28;20052;-62
2023/01/01 05:42:10;;;;;;;46.60;35.33;;;11.00;1.00;;;;;;5031244;28;20056;-62
2023/01/01 05:44:35;;;;;;;49.40;35.90;;;10.90;1.00;;;;;;5030082;28;20025;-62
2023/01/01 05:47:01;;;;;;;45.13;33.95;;;10.90;1.00;;;;;;5030305;28;20025;-62
2023/01/01 05:49:27;;;;;;;43.10;32.55;;;10.80;1.00;;;;;;5035223;28;20033;-62
2023/01/01 05:51:53;;;;;;;44.60;33.90;;;10.60;1.00;;;;;;5030795;28;20030;-62
2023/01/01 05:54:18;;;;;;;47.83;35.00;;;10.70;1.00;;;;;;5031508;28;20067;-62
2023/01/01 05:56:44;;;;;;;48.38;35.38;;;10.60;1.00;;;;;;5021577;28;20030;-62
2023/01/01 05:59:10;;;;;;;44.85;33.00;;;10.70;1.00;;;;;;5031178;28;20053;-62
2023/01/01 06:01:35;;;;;;;44.85;34.13;;;10.80;1.00;;;;;;5020529;28;20030;-62
2023/01/01 06:04:01;;;;;;;43.47;32.92;;;10.70;1.00;;;;;;5031114;28;20045;-62
2023/01/01 06:06:31;;;;;;;49.05;34.40;;;10.70;1.00;;;;;;5029261;28;20030;-62
2023/01/01 06:08:59;;;;;;;50.08;35.13;;;10.60;1.00;;;;;;5031277;28;20433;-62
2023/01/01 06:11:25;;;;;;;48.08;35.00;;;10.80;1.00;;;;;;5023256;28;20087;-62
2023/01/01 06:13:56;;;;;;;45.58;35.20;;;10.80;1.00;;;;;;5031098;28;20025;-62
2023/01/01 06:16:22;;;;;;;42.70;32.22;;;10.90;1.00;;;;;;5029606;28;20372;-62
2023/01/01 06:18:48;;;;;;;40.83;31.05;;;10.90;1.00;;;;;;5030235;28;20032;-62
2023/01/01 06:21:16;;;;;;;42.70;32.22;;;10.90;1.00;;;;;;5031009;28;20028;-62
2023/01/01 06:23:42;;;;;;;45.63;32.53;;;10.80;1.00;;;;;;5031543;28;20034;-62
2023/01/01 06:26:20;;;;;;;41.97;32.58;;;10.80;1.00;;;;;;5034522;28;20055;-62
2023/01/01 06:28:46;;;;;;;40.63;30.33;;;10.90;1.00;;;;;;5033996;28;20047;-62
2023/01/01 06:31:15;;;;;;;45.50;32.47;;;10.90;1.00;;;;;;5034053;28;20064;-62
2023/01/01 06:33:41;;;;;;;44.00;31.58;;;10.90;1.00;;;;;;5033110;28;20034;-62
2023/01/01 06:36:09;;;;;;;40.95;30.45;;;10.90;1.00;;;;;;5033065;28;20076;-62
2023/01/01 06:38:38;;;;;;;37.60;28.52;;;11.00;1.00;;;;;;5034568;28;20025;-62
2023/01/01 06:41:05;;;;;;;36.10;27.45;;;11.00;1.00;;;;;;5034032;28;20136;-61
2023/01/01 06:43:33;;;;;;;40.13;29.20;;;11.00;1.00;;;;;;5034175;28;20360;-62
2023/01/01 06:46:03;;;;;;;34.58;27.23;;;11.00;1.00;;;;;;5028645;28;20482;-62
2023/01/01 06:48:31;;;;;;;34.45;26.75;;;10.90;1.00;;;;;;5034972;28;20033;-62
2023/01/01 06:50:57;;;;;;;31.25;26.13;;;10.90;1.00;;;;;;5034301;28;20029;-62
2023/01/01 06:53:25;;;;;;;37.92;27.48;;;10.90;1.00;;;;;;5033918;28;20382;-62
2023/01/01 06:55:50;;;;;;;37.83;29.20;;;10.90;1.00;;;;;;5033844;28;20030;-62
2023/01/01 06:58:16;;;;;;;35.28;26.15;;;10.90;1.00;;;;;;5031999;28;20029;-62
2023/01/01 07:00:42;;;;;;;33.92;26.30;;;10.90;1.00;;;;;;5027238;28;20467;-62
2023/01/01 07:03:10;;;;;;;42.95;29.35;;;11.00;1.00;;;;;;5033799;28;20048;-62
2023/01/01 07:05:36;;;;;;;35.92;27.88;;;10.90;1.00;;;;;;5026616;28;20489;-62
2023/01/01 07:08:02;;;;;;;37.33;27.83;;;10.90;1.00;;;;;;5033766;28;20049;-62
2023/01/01 07:10:28;;;;;;;39.50;27.98;;;11.00;1.00;;;;;;5033855;28;20033;-62
2023/01/01 07:12:53;;;;;;;39.78;28.25;;;11.00;1.00;;;;;;5033699;28;20033;-62
2023/01/01 07:15:19;;;;;;;40.30;28.90;;;11.00;1.00;;;;;;5032723;28;20029;-61
2023/01/01 07:17:44;;;;;;;36.58;26.90;;;11.00;1.00;;;;;;5028268;28;20452;-62
2023/01/01 07:20:10;;;;;;;37.63;28.25;;;11.00;1.00;;;;;;5031191;28;20105;-62
2023/01/01 07:22:38;;;;;;;38.30;27.75;;;10.90;1.00;;;;;;5032146;28;20041;-62
2023/01/01 07:25:05;;;;;;;38.55;29.58;;;10.90;1.00;;;;;;5032258;28;20361;-61
2023/01/01 07:27:30;;;;;;;37.33;28.00;;;11.00;1.00;;;;;;5033921;28;20091;-61
2023/01/01 07:29:56;;;;;;;35.88;28.30;;;11.00;1.00;;;;;;5032052;28;20030;-61
2023/01/01 07:32:22;;;;;;;35.30;26.42;;;10.80;1.00;;;;;;5033340;28;20372;-62
2023/01/01 07:34:47;;;;;;;38.85;28.63;;;10.70;1.00;;;;;;5032956;28;20021;-61
2023/01/01 07:37:13;;;;;;;37.47;27.98;;;10.90;1.00;;;;;;5033404;28;20025;-61
2023/01/01 07:39:39;;;;;;;37.85;27.60;;;10.80;1.00;;;;;;5024993;28;20033;-61
2023/01/01 07:42:04;;;;;;;47.13;32.08;;;10.80;1.00;;;;;;5032956;28;20168;-61
2023/01/01 07:44:30;;;;;;;38.67;28.48;;;10.90;1.00;;;;;;5032868;28;20444;-61
2023/01/01 07:47:07;;;;;;;37.22;27.40;;;10.90;1.00;;;;;;5033023;28;20068;-61
2023/01/01 07:49:33;;;;;;;41.75;28.73;;;11.00;1.00;;;;;;5032848;28;20045;-62
2023/01/01 07:51:59;;;;;;;41.33;29.17;;;11.00;1.00;;;;;;5033090;28;20063;-61
2023/01/01 07:54:24;;;;;;;40.72;29.52;;;11.00;1.00;;;;;;5029864;28;20120;-61
2023/01/01 07:56:50;;;;;;;41.97;29.55;;;11.00;1.00;;;;;;5033223;28;20537;-61
2023/01/01 07:59:15;;;;;;;40.42;31.13;;;11.10;1.00;;;;;;5028394;28;20048;-61
2023/01/01 08:01:41;;;;;;;43.00;30.55;;;11.10;1.00;;;;;;5032785;28;20348;-61
2023/01/01 08:04:08;;;;;;;46.00;32.33;;;11.00;1.00;;;;;;5032629;28;20060;-61
2023/01/01 08:06:33;;;;;;;42.17;30.35;;;11.10;1.00;;;;;;5032718;28;20475;-62
2023/01/01 08:08:59;;;;;;;40.67;30.15;;;11.10;1.00;;;;;;5032301;28;20033;-61
2023/01/01 08:11:25;;;;;;;42.00;30.75;;;11.10;1.00;;;;;;5032606;28;20048;-61
2023/01/01 08:13:50;;;;;;;41.72;30.30;;;11.20;1.00;;;;;;5031578;28;20034;-61
2023/01/01 08:16:16;;;;;;;40.78;30.92;;;11.10;1.00;;;;;;5032345;28;20087;-60
2023/01/01 08:18:42;;;;;;;43.42;33.40;;;11.10;1.00;;;;;;5030811;28;20049;-60
2023/01/01 08:21:07;;;;;;;40.40;30.95;;;11.10;1.00;;;;;;5031276;28;20555;-60
2023/01/01 08:23:33;;;;;;;37.65;30.13;;;11.10;1.00;;;;;;5032458;28;20033;-60
2023/01/01 08:26:00;;;;;;;42.30;32.05;;;11.20;1.00;;;;;;5032139;28;20099;-60
2023/01/01 08:28:26;;;;;;;41.55;32.00;;;11.20;1.00;;;;;;5032043;28;20022;-60
2023/01/01 08:30:51;;;;;;;43.97;32.60;;;11.10;1.00;;;;;;5031929;28;20547;-60
2023/01/01 08:33:17;;;;;;;41.00;30.98;;;11.20;1.00;;;;;;5032216;28;20112;-60
2023/01/01 08:35:43;;;;;;;39.53;32.95;;;11.10;1.00;;;;;;5022267;28;20030;-60
2023/01/01 08:38:11;;;;;;;44.20;32.88;;;11.20;1.00;;;;;;5032131;28;20515;-60
2023/01/01 08:40:37;;;;;;;44.50;33.10;;;11.10;1.00;;;;;;5031737;28;20018;-60
2023/01/01 08:43:02;;;;;;;44.60;34.45;;;11.20;1.00;;;;;;5031970;28;20049;-60
2023/01/01 08:45:28;;;;;;;48.20;34.90;;;11.20;1.00;;;;;;5031513;28;20033;-60
2023/01/01 08:47:53;;;;;;;50.00;36.00;;;11.30;1.00;;;;;;5030017;28;20067;-61
2023/01/01 08:50:19;;;;;;;51.72;37.85;;;11.30;1.00;;;;;;5030339;28;20486;-60
2023/01/01 08:52:45;;;;;;;46.08;35.65;;;11.30;1.00;;;;;;5031967;28;20097;-60
2023/01/01 08:55:10;;;;;;;44.90;34.42;;;11.30;1.00;;;;;;5026344;28;20503;-60
2023/01/01 08:57:36;;;;;;;48.17;36.75;;;11.30;1.00;;;;;;5031889;28;20306;-60
2023/01/01 09:00:02;;;;;;;46.67;36.00;;;11.20;1.00;;;;;;5030526;28;20113;-60
2023/01/01 09:02:28;;;;;;;45.10;34.58;;;11.20;1.00;;;;;;5031668;28;20088;-61
2023/01/01 09:04:53;;;;;;;48.38;37.00;;;11.20;1.00;;;;;;5031593;28;20025;-60
2023/01/01 09:07:19;;;;;;;47.05;35.90;;;11.30;1.00;;;;;;5031629;28;20040;-60
2023/01/01 09:09:45;;;;;;;44.40;35.40;;;11.20;1.00;;;;;;5031783;28;20018;-60
2023/01/01 09:12:15;;;;;;;43.92;33.88;;;11.20;1.00;;;;;;5026254;28;20021;-60
2023/01/01 09:14:41;;;;;;;47.38;38.05;;;11.20;1.00;;;;;;5028774;28;20033;-61
2023/01/01 09:17:06;;;;;;;48.80;35.78;;;11.40;1.00;;;;;;5032091;28;20060;-60
2023/01/01 09:19:32;;;;;;;44.20;34.28;;;11.40;1.00;;;;;;5031314;28;20041;-60
2023/01/01 09:21:58;;;;;;;52.20;39.35;;;11.40;1.00;;;;;;5030389;28;20076;-60
2023/01/01 09:24:23;;;;;;;44.40;34.35;;;11.40;1.00;;;;;;5031243;28;20026;-60
2023/01/01 09:26:49;;;;;;;51.00;39.47;;;11.40;1.00;;;;;;5030028;28;20108;-60
2023/01/01 09:29:20;;;;;;;52.30;39.03;;;11.40;1.00;;;;;;5031463;28;20090;-60
2023/01/01 09:31:47;;;;;;;49.95;37.95;;;11.30;1.00;;;;;;5031203;28;20026;-61
2023/01/01 09:34:13;;;;;;;48.47;37.10;;;11.40;1.00;;;;;;5031349;28;20360;-61
2023/01/01 09:36:39;;;;;;;50.30;38.17;;;11.40;1.00;;;;;;5025535;28;20514;-61
2023/01/01 09:39:05;;;;;;;53.15;38.55;;;11.40;1.00;;;;;;5029907;28;20026;-61
2023/01/01 09:42:01;;;;;;;49.72;37.95;;;11.40;1.00;;;;;;5031420;28;20053;-61
2023/01/01 09:44:45;;;;;;;46.15;36.17;;;11.40;1.00;;;;;;5019964;28;20048;-61
2023/01/01 09:47:22;;;;;;;48.77;36.00;;;11.40;1.00;;;;;;5031302;28;20025;-61
2023/01/01 09:49:51;;;;;;;50.63;37.70;;;11.50;1.00;;;;;;5021309;28;20313;-61
2023/01/01 09:52:18;;;;;;;54.80;40.75;;;11.30;1.00;;;;;;5028539;28;20060;-61
2023/01/01 09:54:50;;;;;;;49.53;36.83;;;11.40;1.00;;;;;;5029451;28;20041;-61
2023/01/01 09:57:16;;;;;;;48.85;36.95;;;11.40;1.00;;;;;;5027715;28;20087;-61
2023/01/01 09:59:42;;;;;;;50.78;38.50;;;11.50;1.00;;;;;;5033612;28;20033;-61
2023/01/01 10:02:22;;;;;;;59.63;42.65;;;11.50;1.00;;;;;;5029190;28;20029;-61
2023/01/01 10:05:12;;;;;;;53.28;40.38;;;11.60;1.00;;;;;;5033057;28;20075;-61
2023/01/01 10:08:16;;;;;;;54.88;41.42;;;11.40;1.00;;;;;;5032702;28;20036;-61
2023/01/01 10:11:16;;;;;;;56.70;41.58;;;11.30;1.00;;;;;;5033458;28;20029;-61
2023/01/01 10:13:44;;;;;;;58.42;41.67;;;11.40;1.00;;;;;;5026810;28;20026;-61
2023/01/01 10:16:23;;;;;;;60.80;43.78;;;11.30;1.00;;;;;;5034621;28;20028;-60
2023/01/01 10:18:53;;;;;;;61.03;44.20;;;11.40;1.00;;;;;;5034884;28;20060;-61
2023/01/01 10:21:24;;;;;;;54.17;40.33;;;11.40;1.00;;;;;;5031913;28;20025;-61
2023/01/01 10:24:03;;;;;;;60.78;44.22;;;11.50;1.00;;;;;;5025648;28;20478;-61
2023/01/01 10:26:30;;;;;;;65.72;44.95;;;11.40;1.00;;;;;;5034908;28;20360;-61
2023/01/01 10:29:12;;;;;;;60.00;43.13;;;11.50;1.00;;;;;;5034376;28;20036;-60
2023/01/01 10:31:43;;;;;;;55.83;42.70;;;11.40;1.00;;;;;;5034475;28;20057;-61
2023/01/01 10:34:21;;;;;;;72.13;47.30;;;11.40;1.00;;;;;;5034223;28;20531;-61
2023/01/01 10:36:48;;;;;;;66.95;46.55;;;11.20;1.00;;;;;;5048427;28;20037;-61
2023/01/01 10:39:15;;;;;;;62.53;45.00;;;11.40;1.00;;;;;;5032747;28;20060;-61
2023/01/01 10:41:45;;;;;;;62.97;46.58;;;11.30;1.00;;;;;;5034171;28;20085;-60
2023/01/01 10:44:31;;;;;;;59.67;43.40;;;11.40;1.00;;;;;;5032756;28;20483;-61
2023/01/01 10:46:58;;;;;;;66.47;46.40;;;11.30;1.00;;;;;;5033195;28;20079;-61
2023/01/01 10:49:24;;;;;;;61.38;43.72;;;11.50;1.00;;;;;;5020369;28;20490;-61
2023/01/01 10:51:52;;;;;;;59.75;43.78;;;11.50;1.00;;;;;;5032832;28;20131;-61
2023/01/01 10:54:44;;;;;;;63.17;46.05;;;11.60;1.00;;;;;;5034029;28;20105;-61
2023/01/01 10:57:14;;;;;;;75.22;48.95;;;11.60;1.00;;;;;;5032289;28;20048;-61
2023/01/01 10:59:41;;;;;;;69.00;47.55;;;11.50;1.00;;;;;;5034026;28;20049;-61
2023/01/01 11:02:22;;;;;;;68.88;47.92;;;11.40;1.00;;;;;;5033165;28;20048;-61
2023/01/01 11:15:07;;;;;;;60.28;41.90;;;11.40;1.00;;;;;;5023383;28;20036;-60
2023/01/01 11:17:35;;;;;;;59.95;42.22;;;11.40;1.00;;;;;;5033677;28;20037;-61
2023/01/01 11:20:04;;;;;;;63.25;44.42;;;11.40;1.00;;;;;;5030388;28;20029;-61
2023/01/01 11:22:35;;;;;;;57.90;43.22;;;11.40;1.00;;;;;;5033121;28;20037;-61
2023/01/01 11:25:03;;;;;;;61.03;44.33;;;11.40;1.00;;;;;;5033402;28;20220;-61
2023/01/01 11:27:28;;;;;;;53.83;39.60;;;11.30;1.00;;;;;;5033269;28;20084;-61
2023/01/01 11:30:23;;;;;;;58.45;41.72;;;11.30;1.00;;;;;;5031720;28;20473;-61
2023/01/01 11:32:53;;;;;;;60.20;42.30;;;11.20;1.00;;;;;;5033144;28;20115;-61
2023/01/01 11:35:22;;;;;;;67.38;45.15;;;11.20;1.00;;;;;;5030781;28;20030;-61
2023/01/01 11:37:49;;;;;;;59.38;41.33;;;11.20;1.00;;;;;;5032957;28;20020;-61
2023/01/01 11:40:47;;;;;;;63.13;42.30;;;11.20;1.00;;;;;;5016080;28;20100;-61
2023/01/01 11:43:20;;;;;;;63.00;43.75;;;11.20;1.00;;;;;;5026837;28;20049;-61
2023/01/01 11:45:46;;;;;;;60.83;43.10;;;11.20;1.00;;;;;;5027460;28;20129;-61
2023/01/01 11:48:33;;;;;;;55.38;40.78;;;11.30;1.00;;;;;;5031306;28;20037;-61
2023/01/01 11:51:06;;;;;;;54.15;39.33;;;11.40;1.00;;;;;;5012296;28;20029;-61
2023/01/01 11:53:36;;;;;;;55.42;38.72;;;11.30;1.00;;;;;;5013126;28;20025;-61
2023/01/01 11:56:07;;;;;;;53.70;37.80;;;11.30;1.00;;;;;;5013343;28;20458;-61
2023/01/01 11:58:45;;;;;;;57.30;39.78;;;11.20;1.00;;;;;;5012033;28;20036;-61
2023/01/01 12:01:26;;;;;;;52.75;37.78;;;11.20;1.00;;;;;;5013235;28;20128;-61
2023/01/01 12:04:09;;;;;;;53.28;37.25;;;11.40;1.00;;;;;;5011912;28;20034;-61
2023/01/01 12:06:56;;;;;;;54.17;38.50;;;11.30;1.00;;;;;;5013652;28;20395;-61
2023/01/01 12:09:40;;;;;;;55.65;38.72;;;11.40;1.00;;;;;;5030153;28;20033;-61
2023/01/01 12:12:28;;;;;;;47.80;34.10;;;11.50;1.00;;;;;;5033066;28;20033;-61
2023/01/01 12:15:19;;;;;;;55.38;37.40;;;11.40;1.00;;;;;;5032877;28;20025;-61
2023/01/01 12:17:59;;;;;;;56.70;37.28;;;11.40;1.00;;;;;;5027958;28;20064;-61
2023/01/01 12:20:48;;;;;;;51.78;34.15;;;11.50;1.00;;;;;;5025980;28;20475;-61
2023/01/01 12:23:15;;;;;;;51.38;35.33;;;11.40;1.00;;;;;;5032061;28;20036;-61
2023/01/01 12:25:45;;;;;;;52.38;35.70;;;11.50;1.00;;;;;;5019338;28;20033;-61
2023/01/01 12:28:55;;;;;;;58.03;37.00;;;11.50;1.00;;;;;;5013143;28;20113;-61
2023/01/01 12:31:39;;;;;;;52.80;35.72;;;11.60;1.00;;;;;;5013090;28;20388;-61
2023/01/01 12:34:24;;;;;;;60.75;39.38;;;11.50;1.00;;;;;;5026523;28;20022;-61
2023/01/01 12:37:12;;;;;;;61.28;40.38;;;11.50;1.00;;;;;;5013062;28;20041;-61
2023/01/01 12:39:44;;;;;;;61.13;39.97;;;11.60;1.00;;;;;;5012593;28;20021;-61
2023/01/01 12:42:13;;;;;;;53.92;36.85;;;11.70;1.00;;;;;;5012520;28;20139;-61
2023/01/01 12:44:51;;;;;;;64.60;41.03;;;11.50;1.00;;;;;;5012880;28;20100;-61
2023/01/01 12:47:38;;;;;;;61.83;39.63;;;11.60;1.00;;;;;;5012457;28;20110;-60
2023/01/01 12:50:19;;;;;;;63.40;40.30;;;11.60;1.00;;;;;;5031999;28;20160;-61
2023/01/01 12:53:01;;;;;;;58.70;38.95;;;11.60;1.00;;;;;;5014734;28;20037;-61
2023/01/01 12:55:41;;;;;;;57.13;38.22;;;11.40;1.00;;;;;;5032685;28;20033;-61
2023/01/01 12:58:14;;;;;;;56.83;37.00;;;11.50;1.00;;;;;;5032221;28;20017;-61
2023/01/01 13:00:47;;;;;;;58.13;37.20;;;11.30;1.00;;;;;;5030003;28;20049;-61
2023/01/01 13:03:23;;;;;;;52.33;35.95;;;11.40;1.00;;;;;;5032252;28;20340;-61
2023/01/01 13:05:55;;;;;;;49.63;35.38;;;11.40;1.00;;;;;;5014151;28;20128;-61
2023/01/01 13:08:21;;;;;;;50.60;36.08;;;11.50;1.00;;;;;;5012411;28;20105;-61
2023/01/01 13:10:53;;;;;;;53.47;37.10;;;11.50;1.00;;;;;;5028822;28;20120;-61
2023/01/01 13:13:19;;;;;;;42.92;32.03;;;11.50;1.00;;;;;;5031958;28;20029;-60